Terminal Aerodrome Forecast
Issued by NWS Twin Cities, MN

Home | Current Version | Previous Version | Graphics & Text | Print | Product List | Glossary On
Versions: 1 2 3 4 5 6 7 8 9 10 11 12 13 14 15 16 17 18 19 20 21 22 23 24
199
FTUS43 KMPX 292056 AAA
TAFMSP
TAF AMD
KMSP 292056Z 2921/3024 14012G18KT P6SM SCT040 OVC080
     FM292300 10011KT P6SM -RA SCT025 OVC040
      TEMPO 3002/3006 4SM -RA BR BKN025 OVC035
     FM301500 06014G22KT P6SM BKN015 OVC035=

USA.gov is the U.S. government's official web portal to all federal, state and local government web resources and services.